MST,Max TemperatureF,Mean TemperatureF,Min TemperatureF,Max Dew PointF,MeanDew PointF,Min DewpointF,Max Humidity, Mean Humidity, Min Humidity, Max Sea Level PressureIn, Mean Sea Level PressureIn, Min Sea Level PressureIn, Max VisibilityMiles, Mean VisibilityMiles, Min VisibilityMiles, Max Wind SpeedMPH, Mean Wind SpeedMPH, Max Gust SpeedMPH,PrecipitationIn, CloudCover, Events, WindDirDegrees
2013-1-1,19,8,-3,10,2,-5,87,73,59,30.44,30.37,30.22,10,8,6,16,3,20,0.00,5,,14
2013-1-2,30,18,6,11,4,-5,83,62,41,30.50,30.42,30.31,10,10,9,8,2,9,0.00,0,,228
2013-1-3,19,10,1,4,-2,-8,79,64,49,30.53,30.48,30.42,10,10,9,8,2,9,0.00,0,,312
2013-1-4,17,6,-5,4,-1,-6,86,70,54,30.49,30.42,30.33,10,10,10,10,1,12,0.00,0,,84
2013-1-5,17,6,-5,4,-1,-6,87,73,59,30.57,30.50,30.36,10,9,6,15,3,16,0.00,0,,299
2013-1-6,23,12,0,10,3,-5,88,73,57,30.45,30.28,30.15,10,9,6,17,3,24,0.00,0,,273
2013-1-7,24,12,5,11,5,0,87,74,57,30.24,30.09,29.94,10,8,5,16,4,,0.00,0,,248
2013-1-8,42,30,17,21,15,10,68,54,40,30.25,30.08,29.93,10,10,10,16,5,20,0.00,0,,204
2013-1-9,35,26,17,21,17,12,81,69,56,30.29,30.15,29.92,10,10,10,13,4,14,0.00,0,,305
2013-1-10,45,30,14,25,19,11,88,64,39,29.90,29.58,29.33,10,10,9,33,10,46,0.00,0,,254
2013-1-11,31,15,-1,21,5,-5,88,76,63,30.13,29.68,29.32,10,3,0,21,8,24,0.32,8,Fog-Snow,60
2013-1-12,7,-1,-9,-1,-6,-13,83,77,71,30.31,30.17,29.92,10,7,2,8,2,9,0.01,5,Snow,303
2013-1-13,8,-1,-11,0,-7,-14,83,74,65,30.39,30.17,29.94,10,5,2,10,2,13,0.01,6,Snow,155
2013-1-14,4,-5,-15,-5,-12,-16,83,73,62,30.47,30.38,30.31,10,10,4,9,2,10,0.00,3,,308
2013-1-15,10,1,-9,2,-4,-12,86,75,63,30.52,30.43,30.37,10,9,7,8,3,12,0.00,4,,352
2013-1-16,20,10,0,9,3,-2,88,75,62,30.63,30.53,30.43,10,9,7,14,3,15,0.00,0,,45
2013-1-17,22,12,1,11,6,-1,96,82,67,30.71,30.58,30.41,10,8,5,9,2,10,0.00,0,,288
2013-1-18,45,25,5,22,11,1,80,51,22,30.39,30.24,30.10,10,10,9,20,6,23,0.00,0,,268
2013-1-19,43,32,21,18,10,4,58,44,30,30.30,30.22,30.10,10,10,10,20,4,24,0.00,0,,233
2013-1-20,34,24,14,15,10,6,80,60,39,30.40,30.31,30.21,10,10,10,16,3,18,0.00,0,,20
2013-1-21,44,27,10,20,12,7,84,57,29,30.32,30.23,30.11,10,10,8,10,2,16,0.00,0,,180
2013-1-22,40,28,16,17,10,2,59,47,35,30.24,30.17,30.09,10,10,7,10,2,12,0.00,0,,341
2013-1-23,36,29,21,18,13,5,68,48,27,30.22,30.16,30.10,10,10,7,15,4,16,0.00,0,,254
2013-1-24,47,34,21,27,19,9,69,51,33,30.21,30.08,29.98,10,10,10,18,5,20,0.00,1,,182
2013-1-25,47,34,21,23,18,13,81,59,37,30.19,30.12,30.04,10,10,10,12,5,13,0.00,0,,232
2013-1-26,38,30,22,24,20,15,78,66,53,30.02,29.90,29.74,10,10,10,12,3,13,0.00,0,,325
2013-1-27,49,36,23,28,23,19,88,63,37,29.77,29.68,29.53,10,10,9,32,7,43,T,2,,338
2013-1-28,27,19,10,22,17,1,92,69,45,29.88,29.76,29.68,10,6,1,14,3,15,0.05,7,Snow,311
2013-1-29,28,17,6,16,9,-3,92,71,50,30.17,29.94,29.73,10,5,0,16,5,18,0.31,3,Fog-Snow,282
2013-1-30,40,22,3,21,11,-2,80,60,40,30.08,29.97,29.90,10,10,10,22,5,29,0.00,3,,210
2013-1-31,43,30,17,20,14,9,68,52,36,30.15,30.08,29.96,10,10,10,15,5,18,0.00,0,,164